Time;durP1;ratioP1;P1;durP2;ratioP2;P2;SDS_P1;SDS_P2;PMS_P1;PMS_P2;Temp;Humidity;BMP_temperature;BMP_pressure;BME280_temperature;BME280_humidity;BME280_pressure;Samples;Min_cycle;Max_cycle;Signal;HPM_P1;HPM_P2
2021/06/21 00:01:54;;;;;;;14.88;4.28;;;21.60;99.90;;;;;;4992651;28;20554;-72
2021/06/21 00:04:19;;;;;;;14.30;3.60;;;21.50;99.90;;;;;;4990990;28;20152;-71
2021/06/21 00:06:45;;;;;;;13.63;4.43;;;21.50;99.90;;;;;;4989650;28;20160;-72
2021/06/21 00:09:10;;;;;;;15.45;4.75;;;21.50;99.90;;;;;;4993316;28;20101;-72
2021/06/21 00:11:36;;;;;;;14.73;4.50;;;21.60;99.90;;;;;;4994620;28;20081;-72
2021/06/21 00:14:02;;;;;;;13.18;3.85;;;21.50;99.90;;;;;;5004284;28;20225;-72
2021/06/21 00:16:28;;;;;;;16.30;4.63;;;21.40;99.90;;;;;;4998865;28;20079;-72
2021/06/21 00:18:54;;;;;;;10.55;4.38;;;21.30;99.90;;;;;;4990290;28;20094;-72
2021/06/21 00:21:20;;;;;;;13.18;3.78;;;21.40;99.90;;;;;;4992092;28;20090;-72
2021/06/21 00:23:46;;;;;;;11.15;4.72;;;21.60;99.90;;;;;;4989825;28;20481;-72
2021/06/21 00:26:12;;;;;;;12.10;3.60;;;21.60;99.90;;;;;;4988939;28;20079;-72
2021/06/21 00:28:37;;;;;;;19.25;3.80;;;21.50;99.90;;;;;;4991413;28;20082;-72
2021/06/21 00:31:03;;;;;;;13.95;4.13;;;21.50;99.90;;;;;;4988590;28;20192;-72
2021/06/21 00:33:29;;;;;;;16.98;3.78;;;21.40;99.90;;;;;;5005188;28;20070;-72
2021/06/21 00:35:54;;;;;;;15.55;3.80;;;21.30;99.90;;;;;;4994535;28;20144;-72
2021/06/21 00:38:20;;;;;;;15.40;4.05;;;21.30;99.90;;;;;;4988196;28;20133;-72
2021/06/21 00:40:46;;;;;;;13.75;4.18;;;21.30;99.90;;;;;;5000565;28;20098;-72
2021/06/21 00:43:11;;;;;;;10.70;4.15;;;21.40;99.90;;;;;;4989683;28;20079;-72
2021/06/21 00:45:37;;;;;;;19.02;4.65;;;21.40;99.90;;;;;;4988265;28;20078;-73
2021/06/21 00:48:03;;;;;;;13.02;4.43;;;21.40;99.90;;;;;;4991220;28;20435;-72
2021/06/21 00:50:30;;;;;;;13.07;3.70;;;21.30;99.90;;;;;;4993433;28;20113;-72
2021/06/21 00:52:58;;;;;;;12.55;3.85;;;21.20;99.90;;;;;;4989282;28;20067;-72
2021/06/21 00:55:24;;;;;;;18.17;4.97;;;21.10;99.90;;;;;;4988361;28;20934;-72
2021/06/21 00:57:50;;;;;;;7.82;3.17;;;21.10;99.90;;;;;;4988282;28;20078;-72
2021/06/21 01:00:19;;;;;;;12.77;4.20;;;21.10;99.90;;;;;;4998079;28;20094;-72
2021/06/21 01:02:45;;;;;;;17.90;5.05;;;21.00;99.90;;;;;;4996702;28;20097;-72
2021/06/21 01:05:21;;;;;;;16.95;4.93;;;21.10;99.90;;;;;;4985965;28;20105;-72
2021/06/21 01:07:46;;;;;;;13.07;4.13;;;21.10;99.90;;;;;;5004214;28;21126;-72
2021/06/21 01:10:15;;;;;;;16.35;4.35;;;21.00;99.90;;;;;;4988949;28;20098;-72
2021/06/21 01:12:56;;;;;;;15.27;5.25;;;21.10;99.90;;;;;;4990273;28;20144;-72
2021/06/21 01:15:30;;;;;;;16.42;5.05;;;21.10;99.90;;;;;;4988509;28;20117;-72
2021/06/21 01:18:13;;;;;;;17.13;4.57;;;21.00;99.90;;;;;;4995010;28;20601;-72
2021/06/21 01:21:14;;;;;;;11.43;4.10;;;21.00;99.90;;;;;;4989762;28;20511;-72
2021/06/21 01:24:25;;;;;;;14.13;4.65;;;21.00;99.90;;;;;;4988721;28;20089;-72
2021/06/21 01:27:07;;;;;;;14.85;5.00;;;20.80;99.90;;;;;;4987450;28;20071;-72
2021/06/21 01:29:52;;;;;;;14.05;4.25;;;20.90;99.90;;;;;;4993721;28;20101;-72
2021/06/21 01:32:18;;;;;;;18.27;5.22;;;20.90;99.90;;;;;;4988330;28;20075;-72
2021/06/21 01:34:55;;;;;;;9.38;4.03;;;20.80;99.90;;;;;;4982861;28;20083;-72
2021/06/21 01:37:23;;;;;;;12.00;4.20;;;20.70;99.90;;;;;;4988127;28;20125;-73
2021/06/21 01:39:53;;;;;;;15.40;4.60;;;20.50;99.90;;;;;;4990285;28;20106;-72
2021/06/21 01:42:21;;;;;;;11.35;4.40;;;20.50;99.90;;;;;;5030493;23;20149;-75
2021/06/21 01:44:55;;;;;;;13.30;4.70;;;20.40;99.90;;;;;;5022391;28;20082;-75
2021/06/21 01:47:22;;;;;;;15.05;4.53;;;20.40;99.90;;;;;;5025185;28;20613;-75
2021/06/21 01:49:49;;;;;;;14.90;4.43;;;20.50;99.90;;;;;;5026552;28;20100;-75
2021/06/21 01:52:16;;;;;;;11.65;4.35;;;20.50;99.90;;;;;;5017554;28;20087;-75
2021/06/21 01:54:55;;;;;;;12.27;4.80;;;20.30;99.90;;;;;;5011923;28;20077;-75
2021/06/21 01:57:30;;;;;;;10.02;3.67;;;20.30;99.90;;;;;;5010913;28;20113;-73
2021/06/21 01:59:56;;;;;;;15.68;4.53;;;20.40;99.90;;;;;;5007127;28;20530;-75
2021/06/21 02:02:24;;;;;;;8.90;3.85;;;20.30;99.90;;;;;;5003447;28;20098;-75
2021/06/21 02:04:53;;;;;;;11.25;4.45;;;20.00;99.90;;;;;;5014254;28;20173;-75
2021/06/21 02:07:21;;;;;;;11.90;4.63;;;20.00;99.90;;;;;;5006392;28;20159;-73
2021/06/21 02:09:48;;;;;;;10.30;4.07;;;20.20;99.90;;;;;;5008761;28;20185;-75
2021/06/21 02:12:18;;;;;;;13.88;4.78;;;20.20;99.90;;;;;;5007013;28;20148;-75
2021/06/21 02:14:48;;;;;;;12.70;4.40;;;20.20;99.90;;;;;;5010511;28;20078;-75
2021/06/21 02:17:14;;;;;;;17.52;4.55;;;20.20;99.90;;;;;;5011969;28;20077;-73
2021/06/21 02:19:41;;;;;;;15.65;4.88;;;20.10;99.90;;;;;;5015860;28;20446;-75
2021/06/21 02:22:07;;;;;;;21.00;5.70;;;20.10;99.90;;;;;;5020134;28;20090;-74
2021/06/21 02:24:35;;;;;;;16.38;4.05;;;20.10;99.90;;;;;;5014554;28;20069;-74
2021/06/21 02:27:02;;;;;;;13.55;4.72;;;20.00;99.90;;;;;;5013788;28;20797;-75
2021/06/21 02:29:29;;;;;;;11.80;4.18;;;20.00;99.90;;;;;;5007866;28;21898;-75
2021/06/21 02:31:54;;;;;;;9.65;4.22;;;20.00;99.90;;;;;;5012757;28;20097;-74
2021/06/21 02:34:20;;;;;;;10.98;4.28;;;19.80;99.90;;;;;;5016200;28;20078;-75
2021/06/21 02:36:47;;;;;;;16.45;5.68;;;19.70;99.90;;;;;;5008858;28;20106;-74
2021/06/21 02:39:13;;;;;;;14.52;5.47;;;19.80;99.90;;;;;;5009634;28;20562;-75
2021/06/21 02:41:38;;;;;;;9.30;4.25;;;19.70;99.90;;;;;;5011565;28;20102;-74
2021/06/21 02:44:04;;;;;;;13.85;5.00;;;19.80;99.90;;;;;;5014702;28;20546;-74
2021/06/21 02:46:31;;;;;;;10.50;4.18;;;19.70;99.90;;;;;;5012211;28;20078;-74
2021/06/21 02:48:57;;;;;;;13.32;4.82;;;19.50;99.90;;;;;;4993072;28;20075;-75
2021/06/21 02:51:38;;;;;;;13.77;5.22;;;19.40;99.90;;;;;;5014186;28;20185;-75
2021/06/21 02:54:28;;;;;;;8.40;4.20;;;19.30;99.90;;;;;;5012693;28;20082;-74
2021/06/21 02:57:14;;;;;;;10.30;4.97;;;19.40;99.90;;;;;;5010378;28;20081;-74
2021/06/21 02:59:42;;;;;;;11.50;4.50;;;19.20;99.90;;;;;;5007344;28;20540;-72
2021/06/21 03:02:10;;;;;;;13.77;4.72;;;19.40;99.90;;;;;;5010344;28;20098;-74
2021/06/21 03:04:39;;;;;;;12.63;4.60;;;19.40;99.90;;;;;;5011025;28;20128;-74
2021/06/21 03:07:06;;;;;;;8.48;4.18;;;19.50;99.90;;;;;;4992520;28;20217;-74
2021/06/21 03:09:34;;;;;;;13.00;5.40;;;19.40;99.90;;;;;;4996882;28;20077;-75
2021/06/21 03:12:01;;;;;;;16.98;4.95;;;19.40;99.90;;;;;;5015644;28;20807;-74
2021/06/21 03:14:28;;;;;;;13.27;4.68;;;19.50;99.90;;;;;;5007784;28;20074;-74
2021/06/21 03:16:57;;;;;;;9.07;4.43;;;19.30;99.90;;;;;;5008473;28;20157;-74
2021/06/21 03:19:25;;;;;;;11.00;4.10;;;19.40;99.90;;;;;;5010505;28;20454;-74
2021/06/21 03:21:50;;;;;;;17.27;4.22;;;19.30;99.90;;;;;;5009064;28;20103;-74
2021/06/21 03:24:22;;;;;;;11.95;4.43;;;19.30;99.90;;;;;;5011203;28;20079;-74
2021/06/21 03:26:47;;;;;;;13.27;5.03;;;19.30;99.90;;;;;;5017615;28;20082;-74
2021/06/21 03:29:15;;;;;;;11.40;4.40;;;19.40;99.90;;;;;;4991385;28;20562;-73
2021/06/21 03:31:44;;;;;;;12.43;4.10;;;19.30;99.90;;;;;;5008449;28;20098;-75
2021/06/21 03:34:11;;;;;;;12.80;4.15;;;19.30;99.90;;;;;;5013012;28;20370;-75
2021/06/21 03:36:40;;;;;;;10.40;4.75;;;19.30;99.90;;;;;;5012995;28;20406;-75
2021/06/21 03:39:06;;;;;;;10.73;4.07;;;19.30;99.90;;;;;;4991048;28;20136;-74
2021/06/21 03:41:32;;;;;;;8.20;3.88;;;19.30;99.90;;;;;;5010234;28;20109;-75
2021/06/21 03:43:57;;;;;;;14.82;4.78;;;19.10;99.90;;;;;;5010469;28;20086;-74
2021/06/21 03:46:23;;;;;;;11.15;5.28;;;18.90;99.90;;;;;;5009075;28;20085;-74
2021/06/21 03:48:48;;;;;;;11.38;4.10;;;18.90;99.90;;;;;;5009468;28;20101;-74
2021/06/21 03:51:14;;;;;;;9.85;3.80;;;18.90;99.90;;;;;;4990817;28;20099;-75
2021/06/21 03:53:40;;;;;;;9.90;4.35;;;19.10;99.90;;;;;;4991349;28;20086;-75
2021/06/21 03:56:05;;;;;;;9.90;4.90;;;19.30;99.90;;;;;;5012029;28;20110;-75
2021/06/21 03:58:31;;;;;;;12.35;4.15;;;19.30;99.90;;;;;;5008638;28;20106;-74
2021/06/21 04:00:56;;;;;;;10.82;3.92;;;19.30;99.90;;;;;;5013701;28;20144;-74
2021/06/21 04:03:23;;;;;;;12.68;3.92;;;19.20;99.90;;;;;;5002830;28;20082;-75
2021/06/21 04:05:49;;;;;;;11.73;4.15;;;19.30;99.90;;;;;;5011133;28;20070;-73
2021/06/21 04:08:16;;;;;;;10.82;3.80;;;19.20;99.90;;;;;;5005963;28;20078;-73
2021/06/21 04:10:44;;;;;;;9.93;4.30;;;19.30;99.90;;;;;;5012376;28;20094;-74
2021/06/21 04:13:10;;;;;;;12.80;4.43;;;19.20;99.90;;;;;;5012085;28;20122;-75
2021/06/21 04:15:36;;;;;;;15.65;4.35;;;19.30;99.90;;;;;;5028382;28;20112;-74
2021/06/21 04:18:11;;;;;;;12.88;4.63;;;19.50;99.90;;;;;;5011349;28;20098;-75
2021/06/21 04:20:38;;;;;;;9.13;3.53;;;19.30;99.90;;;;;;4992345;28;20090;-73
2021/06/21 04:23:05;;;;;;;7.72;3.58;;;19.30;99.90;;;;;;4998974;28;20138;-74
2021/06/21 04:25:31;;;;;;;8.88;4.10;;;19.40;99.90;;;;;;5007724;28;20078;-73
2021/06/21 04:27:57;;;;;;;13.93;3.47;;;19.50;99.90;;;;;;5010665;28;20807;-75
2021/06/21 04:30:24;;;;;;;13.18;2.90;;;19.60;99.90;;;;;;5008235;28;20485;-75
2021/06/21 04:32:51;;;;;;;6.93;2.60;;;19.60;99.90;;;;;;5010904;28;20145;-75
2021/06/21 04:35:20;;;;;;;9.27;3.72;;;19.70;99.90;;;;;;5003536;28;20074;-75
2021/06/21 04:37:46;;;;;;;13.95;3.88;;;19.70;99.90;;;;;;5020066;28;20101;-74
2021/06/21 04:40:14;;;;;;;11.77;3.38;;;19.70;99.90;;;;;;5016021;28;20109;-75
2021/06/21 04:42:40;;;;;;;11.18;2.20;;;19.80;99.90;;;;;;4992847;28;20617;-74
2021/06/21 04:45:07;;;;;;;10.00;2.90;;;19.80;99.90;;;;;;5010463;28;20161;-74
2021/06/21 04:47:33;;;;;;;9.18;2.72;;;19.90;99.90;;;;;;4998092;28;20124;-75
2021/06/21 04:50:03;;;;;;;8.20;2.60;;;19.90;99.90;;;;;;5012912;28;20098;-75
2021/06/21 04:52:33;;;;;;;9.90;2.50;;;19.90;99.90;;;;;;5007730;28;20090;-75
2021/06/21 04:55:01;;;;;;;13.88;3.90;;;19.90;99.90;;;;;;4992978;28;20477;-75
2021/06/21 04:57:28;;;;;;;11.10;3.08;;;19.90;99.90;;;;;;5016192;28;20071;-76
2021/06/21 04:59:54;;;;;;;10.90;3.22;;;20.00;99.90;;;;;;5007014;28;20098;-77
2021/06/21 05:02:19;;;;;;;9.10;3.22;;;20.00;99.90;;;;;;5007633;28;20213;-75
2021/06/21 05:04:45;;;;;;;15.50;3.28;;;20.00;99.90;;;;;;5020042;28;20078;-74
2021/06/21 05:07:11;;;;;;;10.55;3.40;;;20.10;99.90;;;;;;5015270;28;20090;-75
2021/06/21 05:09:36;;;;;;;7.57;2.20;;;20.20;99.90;;;;;;5018110;28;20117;-73
2021/06/21 05:12:02;;;;;;;11.55;3.10;;;20.30;99.90;;;;;;5010948;28;20177;-76
2021/06/21 05:14:28;;;;;;;7.07;2.90;;;20.40;99.90;;;;;;4991121;28;20114;-76
2021/06/21 05:16:54;;;;;;;13.57;3.03;;;20.40;99.90;;;;;;4992089;28;20070;-75
2021/06/21 05:19:20;;;;;;;12.90;3.00;;;20.40;99.90;;;;;;5014943;28;20131;-75
2021/06/21 05:21:45;;;;;;;13.05;3.08;;;20.40;99.90;;;;;;5008842;28;20090;-76
2021/06/21 05:24:11;;;;;;;5.60;2.53;;;20.50;99.90;;;;;;5006716;28;20493;-75
2021/06/21 05:26:36;;;;;;;16.08;3.00;;;20.60;99.90;;;;;;5008151;28;20132;-74
2021/06/21 05:29:02;;;;;;;8.40;2.63;;;20.60;99.90;;;;;;5009281;28;22134;-74
2021/06/21 05:31:28;;;;;;;8.30;2.88;;;20.70;99.90;;;;;;5007818;28;20545;-75
2021/06/21 05:33:53;;;;;;;10.07;3.03;;;20.70;99.90;;;;;;4992976;28;20515;-74
2021/06/21 05:36:19;;;;;;;14.00;2.97;;;20.90;99.90;;;;;;5027656;28;20148;-74
2021/06/21 05:38:45;;;;;;;12.20;2.80;;;20.90;99.90;;;;;;5026469;28;20441;-73
2021/06/21 05:41:10;;;;;;;10.68;2.70;;;20.90;99.90;;;;;;5020688;28;20165;-72
2021/06/21 05:43:36;;;;;;;11.48;2.30;;;20.90;99.90;;;;;;4991227;28;20083;-75
2021/06/21 05:46:02;;;;;;;7.85;2.78;;;21.00;99.90;;;;;;5006514;28;20102;-73
2021/06/21 05:48:31;;;;;;;10.25;2.72;;;21.10;99.90;;;;;;5000934;28;20085;-75
2021/06/21 05:51:00;;;;;;;10.45;3.28;;;21.20;99.90;;;;;;5019093;28;21561;-74
2021/06/21 05:53:28;;;;;;;11.07;3.25;;;21.30;99.90;;;;;;5018666;28;20082;-74
2021/06/21 05:55:54;;;;;;;12.95;3.10;;;21.40;99.90;;;;;;5018439;28;20067;-74
2021/06/21 05:58:19;;;;;;;9.40;2.63;;;21.40;99.90;;;;;;5022316;28;20070;-75
2021/06/21 06:00:45;;;;;;;11.60;3.13;;;21.50;99.90;;;;;;5015862;28;20082;-72
2021/06/21 06:03:10;;;;;;;11.23;2.90;;;21.60;99.90;;;;;;5015699;28;20476;-72
2021/06/21 06:05:36;;;;;;;7.65;3.17;;;21.70;99.90;;;;;;5011398;28;20507;-73
2021/06/21 06:08:02;;;;;;;9.32;2.63;;;21.70;99.90;;;;;;5021760;28;20152;-73
2021/06/21 06:10:27;;;;;;;7.13;2.50;;;21.70;99.90;;;;;;4995194;28;20094;-73
2021/06/21 06:12:53;;;;;;;8.93;2.60;;;21.70;99.90;;;;;;5012959;28;20086;-73
2021/06/21 06:15:19;;;;;;;13.13;3.08;;;21.80;99.90;;;;;;5010751;28;20078;-73
2021/06/21 06:17:44;;;;;;;8.65;3.03;;;21.80;99.90;;;;;;5011721;28;20103;-73
2021/06/21 06:20:11;;;;;;;13.05;3.03;;;21.90;99.90;;;;;;5017675;28;20144;-73
2021/06/21 06:22:37;;;;;;;8.07;2.55;;;22.00;99.90;;;;;;5009748;28;20106;-73
2021/06/21 06:25:04;;;;;;;10.35;2.35;;;22.00;99.90;;;;;;4996839;28;20160;-73
2021/06/21 06:27:30;;;;;;;12.98;3.08;;;22.00;99.90;;;;;;5010410;28;20245;-73
2021/06/21 06:29:56;;;;;;;10.98;3.83;;;22.00;99.90;;;;;;5015062;28;20628;-73
2021/06/21 06:32:21;;;;;;;9.65;2.33;;;22.00;99.90;;;;;;5004558;28;20167;-73
2021/06/21 06:34:47;;;;;;;8.85;1.73;;;22.00;99.90;;;;;;5019325;28;20071;-73
2021/06/21 06:37:12;;;;;;;11.23;2.30;;;22.00;99.90;;;;;;5010499;28;20163;-73
2021/06/21 06:39:38;;;;;;;12.45;2.30;;;22.10;99.90;;;;;;5011254;28;20086;-72
2021/06/21 06:42:05;;;;;;;8.63;1.98;;;22.20;99.90;;;;;;5005005;28;20102;-73
2021/06/21 06:44:31;;;;;;;8.30;2.17;;;22.40;99.90;;;;;;5010487;28;20086;-73
2021/06/21 06:46:56;;;;;;;10.95;2.80;;;22.60;99.90;;;;;;5010951;28;20132;-73
2021/06/21 06:49:22;;;;;;;10.48;2.88;;;22.60;99.90;;;;;;5011159;28;20488;-73
2021/06/21 06:51:51;;;;;;;9.13;2.08;;;22.70;99.90;;;;;;5013337;28;20108;-73
2021/06/21 06:59:25;;;;;;;8.95;2.15;;;22.80;99.90;;;;;;5023777;28;20070;-73
2021/06/21 07:01:51;;;;;;;7.45;1.98;;;22.90;99.90;;;;;;5011015;28;22001;-73
2021/06/21 07:04:17;;;;;;;11.95;2.03;;;22.90;99.90;;;;;;5011175;28;20086;-73
2021/06/21 07:06:43;;;;;;;11.85;1.80;;;23.00;99.90;;;;;;5010571;28;20089;-74
2021/06/21 07:09:09;;;;;;;9.32;2.20;;;23.00;99.90;;;;;;5012125;28;20109;-74
2021/06/21 07:11:36;;;;;;;7.00;1.83;;;22.90;99.90;;;;;;5018547;28;20125;-74
2021/06/21 07:14:03;;;;;;;7.80;1.63;;;22.90;99.90;;;;;;5016030;28;20074;-74
2021/06/21 07:16:28;;;;;;;10.55;2.67;;;23.00;99.90;;;;;;5020939;28;20673;-72
2021/06/21 07:18:54;;;;;;;6.53;1.33;;;23.10;99.90;;;;;;5021409;28;20074;-74
2021/06/21 07:21:19;;;;;;;11.48;1.75;;;23.10;99.90;;;;;;4998183;28;20094;-74
2021/06/21 07:23:45;;;;;;;10.60;1.98;;;23.20;99.90;;;;;;5021249;28;20094;-74
2021/06/21 07:26:11;;;;;;;9.95;2.42;;;23.30;99.90;;;;;;5010465;28;20090;-73
2021/06/21 07:28:36;;;;;;;10.57;2.50;;;23.20;99.90;;;;;;5022535;28;20082;-74
2021/06/21 07:31:03;;;;;;;13.13;2.92;;;23.20;99.90;;;;;;5022471;28;20104;-74
2021/06/21 07:33:31;;;;;;;6.05;1.55;;;23.50;99.90;;;;;;5015400;28;20070;-74
2021/06/21 07:35:57;;;;;;;9.48;1.70;;;23.50;99.90;;;;;;5011252;28;20078;-74
2021/06/21 07:38:22;;;;;;;7.30;2.05;;;23.50;99.90;;;;;;5010822;28;20088;-74
2021/06/21 07:40:48;;;;;;;9.65;1.88;;;23.70;99.90;;;;;;5011653;28;20169;-74
2021/06/21 07:43:13;;;;;;;10.35;1.98;;;23.80;99.90;;;;;;5028594;28;20570;-74
2021/06/21 07:45:41;;;;;;;6.65;1.75;;;23.80;99.90;;;;;;5012353;28;20086;-75
2021/06/21 07:48:07;;;;;;;10.40;2.50;;;23.80;99.90;;;;;;4992625;28;20132;-74
2021/06/21 07:50:32;;;;;;;6.57;1.83;;;23.50;99.90;;;;;;5010405;28;20086;-74
2021/06/21 07:53:01;;;;;;;8.05;1.55;;;23.70;99.90;;;;;;5008122;28;20099;-74
2021/06/21 07:55:27;;;;;;;11.10;1.75;;;23.70;99.90;;;;;;5021575;28;20070;-73
2021/06/21 07:57:55;;;;;;;7.32;1.88;;;23.80;99.90;;;;;;5002029;28;20078;-74
2021/06/21 08:00:23;;;;;;;11.15;1.88;;;23.80;99.90;;;;;;5018196;28;20082;-74
2021/06/21 08:02:50;;;;;;;9.77;1.80;;;23.90;99.90;;;;;;5008429;28;20086;-74
2021/06/21 08:05:16;;;;;;;9.32;1.88;;;23.70;99.90;;;;;;5009659;28;20086;-74
2021/06/21 08:07:42;;;;;;;10.18;1.65;;;23.90;99.90;;;;;;5009033;28;20082;-74
2021/06/21 08:10:08;;;;;;;6.80;1.80;;;24.00;99.90;;;;;;4989840;28;20133;-74
2021/06/21 08:12:34;;;;;;;7.63;2.17;;;23.90;99.90;;;;;;4999611;28;20477;-73
2021/06/21 08:15:00;;;;;;;9.85;1.50;;;23.80;99.90;;;;;;5009652;28;20693;-74
2021/06/21 08:17:25;;;;;;;9.05;1.75;;;24.00;99.90;;;;;;5008152;28;20131;-74
2021/06/21 08:19:51;;;;;;;8.10;1.98;;;24.00;99.90;;;;;;5010019;28;20562;-73
2021/06/21 08:22:21;;;;;;;9.57;1.17;;;24.20;99.90;;;;;;5006561;28;20094;-74
2021/06/21 08:24:48;;;;;;;8.50;1.60;;;24.20;99.90;;;;;;5015872;28;20077;-74
2021/06/21 08:27:14;;;;;;;6.45;1.75;;;24.30;99.90;;;;;;5013053;28;20082;-73
2021/06/21 08:29:39;;;;;;;7.65;2.35;;;24.20;99.90;;;;;;5008842;28;20454;-74
2021/06/21 08:32:05;;;;;;;14.02;2.22;;;24.20;99.90;;;;;;5006379;28;20094;-74
2021/06/21 08:34:31;;;;;;;7.95;1.80;;;24.10;99.90;;;;;;5014122;28;20496;-74
2021/06/21 08:36:56;;;;;;;6.85;1.50;;;24.20;99.90;;;;;;5020073;28;20066;-74
2021/06/21 08:39:22;;;;;;;6.22;1.55;;;24.50;99.90;;;;;;4997424;28;20075;-74
2021/06/21 08:41:48;;;;;;;4.75;1.48;;;24.50;99.90;;;;;;5010558;28;20116;-74
2021/06/21 08:44:13;;;;;;;5.43;1.45;;;24.60;99.90;;;;;;5009426;28;20137;-75
2021/06/21 08:46:41;;;;;;;10.63;2.42;;;24.80;99.90;;;;;;5008187;28;20132;-74
2021/06/21 08:49:09;;;;;;;5.80;1.48;;;24.80;99.90;;;;;;5009010;28;20745;-74
2021/06/21 08:51:36;;;;;;;7.97;2.00;;;24.60;99.90;;;;;;5010684;28;20098;-74
2021/06/21 08:54:03;;;;;;;6.00;1.30;;;24.50;99.90;;;;;;4994010;28;20078;-74
2021/06/21 08:56:29;;;;;;;9.23;1.52;;;24.80;99.90;;;;;;5024233;28;20070;-74
2021/06/21 08:58:55;;;;;;;6.50;1.20;;;24.70;99.90;;;;;;5019075;28;20073;-74
2021/06/21 09:01:20;;;;;;;7.55;1.40;;;24.90;99.90;;;;;;5014511;28;20097;-74
2021/06/21 09:03:47;;;;;;;7.63;1.27;;;25.10;99.90;;;;;;5019728;28;20133;-74
2021/06/21 09:06:22;;;;;;;5.32;1.80;;;25.10;99.90;;;;;;5005050;28;20074;-74
2021/06/21 09:08:58;;;;;;;9.30;1.55;;;25.20;99.90;;;;;;5016811;28;20065;-74
2021/06/21 09:11:46;;;;;;;5.35;1.30;;;25.20;99.90;;;;;;5002422;28;20093;-74
2021/06/21 09:14:29;;;;;;;5.38;1.35;;;25.20;99.90;;;;;;4998324;28;20078;-74
2021/06/21 09:16:57;;;;;;;6.70;1.98;;;25.30;99.90;;;;;;5015788;28;20541;-75
2021/06/21 09:19:23;;;;;;;6.32;1.33;;;25.40;99.60;;;;;;5009109;28;20147;-74
2021/06/21 09:21:50;;;;;;;8.18;2.20;;;25.50;99.50;;;;;;5018382;28;20097;-75
2021/06/21 09:24:22;;;;;;;5.85;1.20;;;25.20;99.00;;;;;;5000651;28;20075;-74
2021/06/21 09:26:50;;;;;;;5.72;1.77;;;25.30;99.90;;;;;;5018345;28;20071;-74
2021/06/21 09:29:16;;;;;;;11.65;2.15;;;25.50;99.90;;;;;;5004505;28;20081;-75
2021/06/21 09:31:53;;;;;;;8.65;1.75;;;25.20;99.70;;;;;;4996915;28;20106;-75
2021/06/21 09:34:20;;;;;;;5.82;1.58;;;25.20;99.90;;;;;;5018572;28;20078;-75
2021/06/21 09:36:46;;;;;;;5.35;1.60;;;25.40;99.90;;;;;;5022592;28;20097;-75
2021/06/21 09:39:29;;;;;;;5.28;1.27;;;25.50;99.10;;;;;;5011308;28;20112;-75
2021/06/21 09:42:23;;;;;;;5.75;1.30;;;25.10;99.20;;;;;;5022663;28;20136;-76
2021/06/21 09:44:53;;;;;;;7.45;2.15;;;25.40;99.90;;;;;;5018744;28;20160;-76
2021/06/21 09:47:37;;;;;;;8.50;1.70;;;25.30;99.90;;;;;;5014611;28;20090;-75
2021/06/21 09:50:06;;;;;;;;;;;25.50;99.50;;;;;;5013226;28;20094;-76
2021/06/21 09:52:33;;;;;;;9.18;1.77;;;25.20;99.20;;;;;;5012767;28;20113;-75
2021/06/21 09:55:08;;;;;;;6.43;1.25;;;25.50;99.90;;;;;;5002963;28;20105;-76
2021/06/21 09:57:35;;;;;;;6.68;1.38;;;25.80;99.80;;;;;;5013690;28;20076;-75
2021/06/21 10:00:01;;;;;;;7.15;1.77;;;25.80;99.80;;;;;;5023578;28;20090;-76
2021/06/21 10:02:28;;;;;;;6.28;1.98;;;25.50;98.60;;;;;;5022984;28;20104;-75
2021/06/21 10:04:54;;;;;;;6.75;2.25;;;25.70;99.90;;;;;;4996899;28;20126;-76
2021/06/21 10:07:37;;;;;;;6.15;1.58;;;25.80;99.20;;;;;;5012970;28;20106;-75
2021/06/21 10:10:06;;;;;;;10.25;1.70;;;25.90;99.90;;;;;;5012675;28;20094;-75
2021/06/21 10:12:32;;;;;;;7.00;1.40;;;26.00;99.30;;;;;;5013959;28;20169;-75
2021/06/21 10:14:58;;;;;;;6.55;1.70;;;25.90;98.60;;;;;;5017098;28;20117;-74
2021/06/21 10:17:24;;;;;;;9.32;1.60;;;25.70;99.10;;;;;;5006070;28;20104;-75
2021/06/21 10:19:50;;;;;;;7.00;1.85;;;25.60;99.20;;;;;;5020892;28;20078;-75
2021/06/21 10:22:19;;;;;;;9.15;2.08;;;25.70;99.30;;;;;;5021013;28;20143;-76
2021/06/21 10:24:45;;;;;;;10.50;1.50;;;25.80;99.00;;;;;;5024964;28;20074;-76
2021/06/21 10:27:12;;;;;;;6.90;1.65;;;25.80;99.90;;;;;;5010284;28;20086;-75
2021/06/21 10:29:38;;;;;;;10.60;1.67;;;26.10;99.20;;;;;;5015733;28;20108;-75
2021/06/21 10:32:07;;;;;;;5.60;1.75;;;26.10;99.10;;;;;;5011282;28;20399;-75
2021/06/21 10:34:33;;;;;;;7.82;1.30;;;25.80;98.20;;;;;;4999006;28;20174;-77
2021/06/21 10:36:59;;;;;;;7.32;1.92;;;25.80;98.40;;;;;;5010865;28;20173;-74
2021/06/21 10:39:27;;;;;;;8.48;1.48;;;25.60;98.40;;;;;;5012429;28;20078;-75
2021/06/21 10:42:05;;;;;;;8.20;1.40;;;25.80;98.20;;;;;;5008932;28;20098;-75
2021/06/21 10:44:33;;;;;;;6.28;1.40;;;25.90;98.70;;;;;;5014454;28;20078;-75
2021/06/21 10:47:22;;;;;;;9.43;2.25;;;25.90;98.40;;;;;;5010229;28;20104;-74
2021/06/21 10:50:08;;;;;;;7.07;1.50;;;25.90;98.20;;;;;;5012265;28;20562;-74
2021/06/21 10:52:40;;;;;;;9.25;1.70;;;25.70;98.00;;;;;;5010909;28;20092;-75
2021/06/21 10:55:25;;;;;;;7.43;1.98;;;25.80;98.50;;;;;;5028669;28;20169;-75
2021/06/21 10:58:20;;;;;;;8.05;1.92;;;25.80;98.20;;;;;;5012036;28;20074;-75
2021/06/21 11:00:51;;;;;;;6.03;0.95;;;25.80;98.60;;;;;;5011049;28;20083;-76
2021/06/21 11:03:29;;;;;;;6.53;1.60;;;26.10;98.10;;;;;;5016533;28;20094;-77
2021/06/21 11:05:59;;;;;;;12.02;1.63;;;26.10;98.30;;;;;;5017506;28;20124;-76
2021/06/21 11:08:27;;;;;;;6.68;1.30;;;26.20;98.10;;;;;;5011761;28;20070;-74
2021/06/21 11:10:55;;;;;;;6.43;1.38;;;26.40;98.50;;;;;;5013811;28;20457;-77
2021/06/21 11:13:36;;;;;;;7.65;1.40;;;26.50;98.20;;;;;;5013608;28;20156;-75
2021/06/21 11:16:24;;;;;;;9.70;1.27;;;26.30;97.70;;;;;;5017686;28;20093;-75
2021/06/21 11:19:21;;;;;;;6.95;1.42;;;26.30;98.10;;;;;;5003447;28;20086;-74
2021/06/21 11:21:49;;;;;;;6.38;1.60;;;26.30;97.80;;;;;;5019759;28;20564;-74
2021/06/21 11:24:42;;;;;;;4.65;1.70;;;26.40;97.70;;;;;;5019082;28;20073;-74
2021/06/21 11:27:13;;;;;;;6.70;1.58;;;26.40;98.60;;;;;;5017407;28;20078;-74
2021/06/21 11:29:41;;;;;;;5.63;1.20;;;26.50;97.60;;;;;;5020392;28;20160;-74
2021/06/21 11:32:08;;;;;;;9.13;1.48;;;26.30;97.10;;;;;;5018839;28;20094;-75
2021/06/21 11:34:53;;;;;;;8.80;2.30;;;26.20;97.50;;;;;;5018061;28;20478;-75
2021/06/21 11:37:50;;;;;;;7.65;1.35;;;26.20;97.20;;;;;;5002389;28;20136;-74
2021/06/21 11:40:19;;;;;;;11.27;1.55;;;26.30;97.50;;;;;;5014620;28;20498;-74
2021/06/21 11:42:57;;;;;;;10.30;1.85;;;26.30;97.60;;;;;;5008272;28;20117;-74
2021/06/21 11:45:52;;;;;;;9.48;1.50;;;26.20;96.80;;;;;;5017904;28;20135;-75
2021/06/21 11:48:32;;;;;;;8.05;2.38;;;26.00;96.80;;;;;;4996883;28;20725;-74
2021/06/21 11:51:11;;;;;;;7.15;1.40;;;26.30;97.60;;;;;;5010061;28;20181;-74
2021/06/21 11:53:40;;;;;;;8.25;1.73;;;26.30;97.40;;;;;;5009808;28;20094;-76
2021/06/21 11:56:05;;;;;;;7.03;1.23;;;26.50;97.20;;;;;;5024533;28;20086;-75
2021/06/21 11:58:32;;;;;;;9.73;1.63;;;26.30;97.10;;;;;;4992063;28;20085;-74
2021/06/21 12:00:59;;;;;;;6.75;1.38;;;26.60;98.90;;;;;;5008856;28;20136;-75
2021/06/21 12:03:34;;;;;;;8.98;1.92;;;26.60;97.00;;;;;;5010844;28;20078;-74
2021/06/21 12:06:00;;;;;;;8.57;1.67;;;26.70;96.80;;;;;;5011520;28;20124;-74
2021/06/21 12:08:26;;;;;;;9.10;1.33;;;26.60;96.90;;;;;;5009172;28;20085;-74
2021/06/21 12:10:52;;;;;;;8.43;1.40;;;26.60;97.30;;;;;;5008875;28;20091;-75
2021/06/21 12:13:20;;;;;;;9.35;1.75;;;26.60;96.60;;;;;;4997457;28;20184;-74
2021/06/21 12:15:45;;;;;;;8.05;1.80;;;26.70;97.10;;;;;;5021184;28;20149;-75
2021/06/21 12:18:11;;;;;;;7.22;1.73;;;26.70;96.70;;;;;;5008081;28;20865;-75
2021/06/21 12:20:37;;;;;;;13.52;1.98;;;26.80;97.20;;;;;;5009387;28;20161;-75
2021/06/21 12:23:08;;;;;;;6.18;1.30;;;26.70;96.90;;;;;;4996673;28;20100;-76
2021/06/21 12:25:37;;;;;;;8.43;1.58;;;26.90;98.10;;;;;;4997041;28;20079;-74
2021/06/21 12:28:18;;;;;;;12.13;1.45;;;26.90;96.50;;;;;;5010376;28;20114;-75
2021/06/21 12:30:43;;;;;;;8.13;1.88;;;26.80;96.60;;;;;;5012955;28;20085;-77
2021/06/21 12:33:35;;;;;;;14.80;2.08;;;27.00;96.50;;;;;;4998446;28;20091;-74
2021/06/21 12:36:10;;;;;;;7.85;1.08;;;27.10;98.00;;;;;;4991081;28;20086;-77
2021/06/21 12:38:55;;;;;;;6.78;1.67;;;27.00;97.30;;;;;;4991165;28;20438;-76
2021/06/21 12:41:31;;;;;;;9.95;1.45;;;27.00;96.00;;;;;;5014806;28;20098;-77
2021/06/21 12:44:11;;;;;;;8.65;1.67;;;26.80;95.70;;;;;;4993459;28;20561;-76
2021/06/21 12:46:48;;;;;;;9.40;1.80;;;26.70;96.00;;;;;;5004505;28;20089;-75
2021/06/21 12:49:20;;;;;;;10.02;2.00;;;26.80;96.20;;;;;;5016387;28;20070;-74
2021/06/21 12:51:47;;;;;;;7.25;1.70;;;26.60;95.70;;;;;;4994835;28;20105;-74
2021/06/21 12:54:24;;;;;;;9.68;1.85;;;26.70;95.80;;;;;;5013214;28;20098;-74
2021/06/21 12:56:55;;;;;;;7.13;1.75;;;26.80;96.10;;;;;;4993746;28;20070;-75
2021/06/21 12:59:38;;;;;;;9.88;1.85;;;27.00;95.60;;;;;;5014048;28;20074;-75